createdAt,value
2022-08-24T00:01:13.818Z,1.25
2022-08-24T00:03:42.100Z,0.93
2022-08-24T00:06:12.581Z,1.00
2022-08-24T00:08:40.637Z,1.38
2022-08-24T00:11:08.332Z,1.20
2022-08-24T00:13:36.674Z,1.92
2022-08-24T00:16:08.803Z,1.00
2022-08-24T00:18:36.244Z,1.10
2022-08-24T00:21:04.677Z,1.20
2022-08-24T00:23:31.799Z,1.10
2022-08-24T00:25:58.945Z,1.40
2022-08-24T00:28:26.571Z,1.10
2022-08-24T00:30:53.964Z,0.93
2022-08-24T00:33:21.132Z,0.77
2022-08-24T00:35:48.261Z,0.80
2022-08-24T00:38:15.651Z,0.80
2022-08-24T00:40:46.165Z,0.90
2022-08-24T00:43:21.256Z,0.82
2022-08-24T00:46:07.643Z,0.98
2022-08-24T00:48:39.978Z,0.77
2022-08-24T00:51:16.301Z,1.00
2022-08-24T00:53:49.005Z,0.68
2022-08-24T00:56:31.191Z,0.70
2022-08-24T00:59:05.774Z,0.77
2022-08-24T01:01:35.885Z,1.00
2022-08-24T01:04:05.366Z,0.98
2022-08-24T01:06:33.438Z,0.75
2022-08-24T01:09:00.850Z,0.75
2022-08-24T01:11:34.041Z,0.85
2022-08-24T01:14:03.218Z,0.98
2022-08-24T01:16:49.062Z,0.77
2022-08-24T01:19:31.864Z,1.08
2022-08-24T01:22:11.519Z,1.10
2022-08-24T01:24:39.536Z,0.70
2022-08-24T01:27:10.318Z,0.70
2022-08-24T01:29:41.291Z,0.80
2022-08-24T01:32:09.080Z,0.57
2022-08-24T01:34:36.693Z,1.42
2022-08-24T01:37:04.878Z,0.70
2022-08-24T01:39:44.714Z,0.60
2022-08-24T01:42:14.310Z,0.55
2022-08-24T01:44:44.301Z,1.23
2022-08-24T01:47:14.051Z,0.70
2022-08-24T01:49:44.079Z,0.82
2022-08-24T01:52:16.259Z,0.63
2022-08-24T01:54:43.799Z,1.15
2022-08-24T01:57:16.065Z,1.10
2022-08-24T01:59:44.304Z,0.82
2022-08-24T02:02:19.825Z,1.20
2022-08-24T02:04:47.109Z,1.00
2022-08-24T02:07:14.636Z,1.00
2022-08-24T02:09:41.889Z,0.82
2022-08-24T02:12:09.703Z,1.00
2022-08-24T02:14:37.324Z,1.13
2022-08-24T02:17:06.553Z,0.73
2022-08-24T02:19:34.707Z,0.82
2022-08-24T02:22:02.363Z,1.10
2022-08-24T02:24:29.806Z,1.10
2022-08-24T02:26:57.005Z,0.93
2022-08-24T02:29:24.439Z,0.90
2022-08-24T02:31:51.675Z,1.17
2022-08-24T02:34:18.906Z,1.30
2022-08-24T02:36:46.658Z,1.02
2022-08-24T02:39:13.855Z,1.50
2022-08-24T02:41:41.778Z,1.27
2022-08-24T02:44:09.159Z,1.20
2022-08-24T02:46:36.827Z,1.05
2022-08-24T02:49:11.437Z,1.40
2022-08-24T02:51:45.720Z,1.10
2022-08-24T02:54:21.695Z,1.08
2022-08-24T02:56:51.856Z,1.48
2022-08-24T02:59:20.032Z,1.42
2022-08-24T03:01:49.811Z,1.73
2022-08-24T03:06:45.179Z,1.52
2022-08-24T03:09:12.442Z,1.88
2022-08-24T03:11:40.063Z,1.48
2022-08-24T03:14:13.197Z,1.20
2022-08-24T03:16:40.485Z,1.17
2022-08-24T03:19:07.725Z,1.48
2022-08-24T03:21:37.220Z,1.33
2022-08-24T03:24:05.434Z,1.40
2022-08-24T03:26:33.374Z,1.40
2022-08-24T03:29:00.637Z,1.50
2022-08-24T03:31:28.501Z,1.80
2022-08-24T03:33:55.793Z,1.33
2022-08-24T03:36:22.972Z,1.30
2022-08-24T03:38:50.537Z,1.52
2022-08-24T03:41:18.937Z,1.13
2022-08-24T03:43:46.161Z,1.65
2022-08-24T03:46:21.422Z,1.35
2022-08-24T03:48:49.864Z,1.63
2022-08-24T03:51:23.286Z,1.27
2022-08-24T03:53:52.095Z,1.48
2022-08-24T03:56:20.919Z,1.10
2022-08-24T03:58:49.220Z,1.80
2022-08-24T04:01:17.536Z,1.40
2022-08-24T04:03:46.982Z,1.40
2022-08-24T04:06:17.748Z,1.63
2022-08-24T04:08:46.265Z,1.73
2022-08-24T04:11:19.659Z,1.35
2022-08-24T04:13:48.003Z,1.50
2022-08-24T04:16:18.125Z,1.35
2022-08-24T04:18:47.484Z,1.40
2022-08-24T04:21:28.804Z,1.42
2022-08-24T04:23:57.379Z,1.60
2022-08-24T04:26:44.165Z,1.70
2022-08-24T04:29:16.753Z,1.40
2022-08-24T04:31:49.155Z,1.60
2022-08-24T04:34:18.310Z,1.70
2022-08-24T04:36:46.496Z,1.42
2022-08-24T04:39:15.003Z,1.85
2022-08-24T04:42:05.487Z,1.60
2022-08-24T04:44:37.821Z,1.77
2022-08-24T04:47:05.462Z,1.77
2022-08-24T04:49:33.458Z,1.58
2022-08-24T04:52:01.290Z,2.05
2022-08-24T04:54:28.982Z,1.92
2022-08-24T04:57:09.771Z,2.63
2022-08-24T04:59:40.742Z,2.40
2022-08-24T05:02:07.966Z,1.80
2022-08-24T05:04:37.355Z,2.42
2022-08-24T05:07:05.573Z,2.80
2022-08-24T05:09:33.430Z,3.10
2022-08-24T05:12:02.518Z,2.42
2022-08-24T05:14:35.119Z,3.08
2022-08-24T05:17:03.004Z,3.30
2022-08-24T05:19:31.440Z,3.00
2022-08-24T05:22:00.609Z,3.17
2022-08-24T05:24:28.414Z,2.72
2022-08-24T05:26:56.945Z,2.42
2022-08-24T05:29:26.947Z,2.10
2022-08-24T05:31:54.624Z,1.97
2022-08-24T05:34:23.824Z,2.10
2022-08-24T05:36:51.321Z,1.70
2022-08-24T05:39:30.972Z,2.08
2022-08-24T05:41:59.857Z,1.75
2022-08-24T05:44:31.506Z,1.90
2022-08-24T05:47:02.829Z,2.60
2022-08-24T05:49:31.105Z,1.77
2022-08-24T05:51:58.854Z,1.77
2022-08-24T05:54:26.839Z,1.90
2022-08-24T06:00:02.102Z,2.00
2022-08-24T06:02:31.361Z,2.05
2022-08-24T06:04:58.581Z,2.00
2022-08-24T06:07:26.951Z,2.88
2022-08-24T06:10:06.311Z,2.17
2022-08-24T06:12:42.681Z,2.05
2022-08-24T06:15:11.367Z,2.17
2022-08-24T06:17:39.191Z,1.92
2022-08-24T06:20:07.459Z,1.92
2022-08-24T06:22:34.669Z,2.10
2022-08-24T06:25:20.497Z,1.52
2022-08-24T06:27:47.878Z,1.70
2022-08-24T06:30:15.173Z,2.17
2022-08-24T06:33:02.505Z,2.08
2022-08-24T06:35:46.837Z,1.83
2022-08-24T06:38:14.662Z,2.22
2022-08-24T06:40:42.823Z,1.90
2022-08-24T06:43:11.033Z,2.28
2022-08-24T06:46:00.927Z,1.73
2022-08-24T06:48:31.794Z,1.98
2022-08-24T06:51:00.004Z,1.60
2022-08-24T06:53:28.901Z,2.03
2022-08-24T06:55:59.119Z,1.75
2022-08-24T06:58:32.387Z,1.33
2022-08-24T07:01:09.991Z,2.42
2022-08-24T07:03:37.664Z,2.42
2022-08-24T07:06:20.829Z,2.05
2022-08-24T07:08:48.470Z,1.65
2022-08-24T07:11:18.042Z,2.55
2022-08-24T07:13:49.264Z,1.77
2022-08-24T07:16:21.133Z,1.77
2022-08-24T07:18:52.568Z,1.73
2022-08-24T07:23:55.446Z,2.28
2022-08-24T07:26:25.503Z,2.10
2022-08-24T07:29:01.390Z,1.85
2022-08-24T07:31:37.795Z,1.83
2022-08-24T07:34:26.293Z,2.03
2022-08-24T07:36:54.660Z,1.80
2022-08-24T07:39:21.827Z,1.60
2022-08-24T07:42:11.505Z,1.50
2022-08-24T07:44:37.644Z,1.77
2022-08-24T07:47:27.165Z,1.80
2022-08-24T07:49:52.936Z,1.80
2022-08-24T07:52:20.471Z,1.83
2022-08-24T07:54:47.731Z,1.52
2022-08-24T07:57:15.706Z,1.70
2022-08-24T07:59:43.024Z,2.00
2022-08-24T08:02:11.691Z,2.22
2022-08-24T08:04:41.873Z,1.77
2022-08-24T08:07:09.745Z,1.63
2022-08-24T08:09:38.468Z,1.60
2022-08-24T08:12:07.117Z,1.63
2022-08-24T08:14:35.665Z,1.80
2022-08-24T08:17:02.883Z,1.52
2022-08-24T08:19:30.320Z,2.25
2022-08-24T08:22:16.303Z,1.77
2022-08-24T08:27:36.176Z,1.38
2022-08-24T08:30:06.397Z,2.10
2022-08-24T08:32:34.493Z,1.88
2022-08-24T08:35:02.770Z,1.70
2022-08-24T08:37:31.955Z,2.08
2022-08-24T08:39:59.617Z,1.77
2022-08-24T08:42:47.996Z,2.42
2022-08-24T08:45:25.509Z,1.70
2022-08-24T08:48:29.604Z,2.33
2022-08-24T08:51:39.386Z,1.70
2022-08-24T08:54:44.392Z,1.88
2022-08-24T08:57:32.612Z,2.47
2022-08-24T09:00:15.738Z,1.80
2022-08-24T09:03:17.484Z,1.70
2022-08-24T09:06:18.835Z,1.80
2022-08-24T09:09:13.200Z,2.10
2022-08-24T09:12:13.322Z,2.28
2022-08-24T09:14:56.082Z,2.65
2022-08-24T09:17:41.337Z,1.92
2022-08-24T09:20:56.306Z,1.65
2022-08-24T09:23:32.779Z,1.73
2022-08-24T09:26:19.114Z,2.58
2022-08-24T09:29:16.497Z,2.05
2022-08-24T09:31:57.415Z,2.40
2022-08-24T09:34:51.362Z,2.53
2022-08-24T09:37:46.570Z,2.00
2022-08-24T09:40:59.362Z,2.28
2022-08-24T09:43:44.156Z,2.28
2022-08-24T09:46:27.345Z,2.63
2022-08-24T09:49:30.326Z,1.80
2022-08-24T09:52:18.557Z,2.88
2022-08-24T09:55:17.867Z,2.10
2022-08-24T09:58:00.562Z,2.58
2022-08-24T10:00:37.639Z,2.08
2022-08-24T10:03:17.318Z,2.80
2022-08-24T10:06:10.961Z,2.03
2022-08-24T10:09:24.316Z,2.08
2022-08-24T10:12:09.720Z,1.90
2022-08-24T10:14:49.040Z,2.20
2022-08-24T10:17:28.585Z,1.95
2022-08-24T10:20:16.720Z,2.45
2022-08-24T10:23:34.761Z,2.00
2022-08-24T10:26:14.205Z,2.28
2022-08-24T10:28:59.991Z,1.55
2022-08-24T10:31:35.473Z,1.80
2022-08-24T10:34:30.284Z,1.77
2022-08-24T10:37:19.991Z,1.65
2022-08-24T10:40:09.619Z,2.28
2022-08-24T10:43:03.078Z,2.33
2022-08-24T10:45:43.118Z,1.77
2022-08-24T10:48:52.596Z,1.65
2022-08-24T10:51:44.803Z,2.10
2022-08-24T10:54:13.227Z,2.15
2022-08-24T10:57:01.920Z,1.85
2022-08-24T11:02:06.674Z,2.30
2022-08-24T11:04:40.601Z,2.10
2022-08-24T11:07:17.615Z,1.75
2022-08-24T11:09:53.245Z,1.70
2022-08-24T11:12:46.460Z,2.17
2022-08-24T11:15:28.104Z,2.20
2022-08-24T11:17:58.495Z,1.88
2022-08-24T11:20:47.205Z,2.30
2022-08-24T11:23:29.704Z,2.10
2022-08-24T11:26:01.908Z,2.30
2022-08-24T11:28:38.931Z,1.88
2022-08-24T11:31:12.598Z,2.13
2022-08-24T11:33:53.008Z,2.22
2022-08-24T11:36:25.829Z,2.22
2022-08-24T11:39:25.927Z,1.88
2022-08-24T11:41:59.295Z,1.88
2022-08-24T11:44:54.377Z,1.70
2022-08-24T11:47:39.548Z,2.20
2022-08-24T11:50:25.337Z,1.65
2022-08-24T11:53:30.169Z,1.95
2022-08-24T11:56:25.498Z,2.00
2022-08-24T11:59:11.006Z,2.22
2022-08-24T12:02:11.047Z,1.63
2022-08-24T12:05:05.531Z,2.00
2022-08-24T12:08:10.879Z,2.55
2022-08-24T12:11:01.970Z,1.95
2022-08-24T12:13:47.117Z,2.15
2022-08-24T12:16:35.544Z,1.77
2022-08-24T12:19:10.191Z,2.00
2022-08-24T12:21:40.900Z,2.00
2022-08-24T12:24:33.379Z,1.60
2022-08-24T12:27:18.693Z,1.98
2022-08-24T12:30:11.441Z,2.03
2022-08-24T12:32:49.835Z,1.90
2022-08-24T12:35:32.545Z,3.05
2022-08-24T12:38:16.273Z,2.40
2022-08-24T12:40:52.530Z,2.28
2022-08-24T12:43:25.637Z,2.28
2022-08-24T12:45:56.320Z,2.05
2022-08-24T12:48:34.816Z,1.50
2022-08-24T12:51:14.412Z,2.05
2022-08-24T12:54:04.780Z,1.95
2022-08-24T12:56:43.004Z,1.55
2022-08-24T12:59:21.004Z,1.73
2022-08-24T13:02:02.963Z,2.05
2022-08-24T13:04:48.533Z,2.58
2022-08-24T13:07:18.606Z,2.08
2022-08-24T13:10:06.389Z,2.15
2022-08-24T13:12:43.513Z,1.97
2022-08-24T13:15:22.777Z,2.03
2022-08-24T13:18:20.054Z,1.92
2022-08-24T13:20:50.169Z,2.03
2022-08-24T13:23:24.737Z,1.90
2022-08-24T13:26:28.777Z,1.65
2022-08-24T13:29:00.386Z,2.00
2022-08-24T13:31:38.391Z,2.58
2022-08-24T13:34:15.130Z,2.13
2022-08-24T13:37:14.325Z,2.10
2022-08-24T13:39:59.961Z,1.75
2022-08-24T13:42:45.094Z,1.80
2022-08-24T13:45:56.872Z,1.58
2022-08-24T13:48:34.583Z,2.22
2022-08-24T13:51:38.269Z,1.48
2022-08-24T13:54:34.352Z,1.95
2022-08-24T13:57:08.131Z,2.22
2022-08-24T14:00:13.017Z,2.38
2022-08-24T14:02:57.731Z,2.05
2022-08-24T14:05:47.356Z,1.60
2022-08-24T14:08:44.572Z,1.77
2022-08-24T14:11:35.372Z,1.73
2022-08-24T14:14:23.770Z,2.00
2022-08-24T14:17:35.963Z,2.33
2022-08-24T14:20:22.378Z,1.88
2022-08-24T14:23:00.781Z,2.10
2022-08-24T14:25:33.727Z,1.90
2022-08-24T14:28:01.298Z,2.03
2022-08-24T14:30:29.021Z,2.30
2022-08-24T14:32:59.604Z,2.10
2022-08-24T14:35:40.190Z,2.63
2022-08-24T14:38:20.241Z,2.30
2022-08-24T14:40:57.693Z,1.83
2022-08-24T14:43:34.931Z,2.83
2022-08-24T14:46:41.250Z,2.10
2022-08-24T14:49:18.180Z,2.40
2022-08-24T14:52:03.442Z,2.30
2022-08-24T14:54:59.060Z,2.22
2022-08-24T14:57:40.655Z,2.60
2022-08-24T15:00:24.441Z,3.03
2022-08-24T15:02:51.600Z,2.88
2022-08-24T15:05:36.223Z,3.60
2022-08-24T15:08:08.903Z,2.55
2022-08-24T15:10:58.813Z,2.85
2022-08-24T15:13:35.716Z,2.83
2022-08-24T15:16:23.016Z,2.78
2022-08-24T15:19:02.340Z,3.22
2022-08-24T15:21:56.913Z,3.20
2022-08-24T15:24:42.895Z,2.25
2022-08-24T15:27:42.124Z,2.80
2022-08-24T15:30:19.319Z,3.75
2022-08-24T15:32:54.090Z,3.28
2022-08-24T15:35:32.123Z,3.10
2022-08-24T15:38:16.546Z,2.90
2022-08-24T15:40:46.693Z,2.72
2022-08-24T15:43:14.381Z,3.40
2022-08-24T15:45:51.282Z,2.80
2022-08-24T15:48:24.469Z,2.58
2022-08-24T15:50:53.973Z,3.65
2022-08-24T15:53:33.168Z,3.78
2022-08-24T15:56:20.192Z,2.65
2022-08-24T15:58:48.825Z,2.72
2022-08-24T16:01:34.293Z,2.47
2022-08-24T16:04:04.870Z,2.70
2022-08-24T16:06:31.984Z,2.42
2022-08-24T16:09:12.186Z,2.57
2022-08-24T16:11:49.050Z,2.92
2022-08-24T16:14:29.909Z,2.50
2022-08-24T16:16:58.962Z,2.55
2022-08-24T16:19:33.213Z,2.42
2022-08-24T16:22:04.851Z,2.60
2022-08-24T16:24:31.952Z,2.10
2022-08-24T16:27:00.708Z,2.40
2022-08-24T16:29:37.886Z,2.40
2022-08-24T16:32:21.206Z,2.30
2022-08-24T16:35:10.945Z,2.63
2022-08-24T16:37:39.267Z,2.17
2022-08-24T16:40:08.462Z,2.30
2022-08-24T16:42:36.903Z,2.65
2022-08-24T16:45:05.809Z,2.30
2022-08-24T16:47:32.994Z,2.50
2022-08-24T16:50:00.132Z,2.28
2022-08-24T16:52:27.422Z,2.35
2022-08-24T16:54:54.703Z,2.70
2022-08-24T16:57:24.727Z,1.98
2022-08-24T16:59:52.611Z,2.65
2022-08-24T17:02:21.867Z,2.20
2022-08-24T17:04:49.910Z,2.10
2022-08-24T17:07:22.220Z,2.08
2022-08-24T17:09:49.503Z,2.17
2022-08-24T17:12:16.623Z,2.30
2022-08-24T17:14:44.337Z,1.80
2022-08-24T17:19:43.381Z,2.03
2022-08-24T17:22:14.323Z,1.83
2022-08-24T17:24:44.921Z,1.67
2022-08-24T17:27:13.772Z,1.90
2022-08-24T17:29:43.448Z,1.60
2022-08-24T17:32:10.932Z,1.80
2022-08-24T17:34:39.074Z,1.60
2022-08-24T17:37:07.499Z,1.70
2022-08-24T17:39:34.854Z,1.55
2022-08-24T17:42:03.689Z,1.42
2022-08-24T17:44:33.420Z,1.73
2022-08-24T17:47:03.681Z,1.70
2022-08-24T17:49:32.149Z,1.33
2022-08-24T17:51:59.515Z,2.13
2022-08-24T17:54:28.327Z,1.80
2022-08-24T17:56:56.074Z,1.50
2022-08-24T17:59:29.568Z,1.85
2022-08-24T18:02:00.490Z,1.48
2022-08-24T18:04:30.447Z,1.90
2022-08-24T18:07:01.054Z,1.83
2022-08-24T18:09:35.157Z,1.35
2022-08-24T18:12:05.976Z,1.48
2022-08-24T18:14:34.525Z,1.40
2022-08-24T18:17:04.475Z,1.58
2022-08-24T18:19:33.511Z,2.00
2022-08-24T18:22:01.429Z,1.90
2022-08-24T18:24:32.338Z,1.30
2022-08-24T18:27:03.270Z,1.27
2022-08-24T18:29:40.858Z,1.55
2022-08-24T18:32:11.733Z,1.45
2022-08-24T18:34:40.160Z,1.50
2022-08-24T18:39:35.209Z,1.60
2022-08-24T18:42:05.665Z,1.60
2022-08-24T18:44:33.319Z,1.80
2022-08-24T18:47:00.470Z,1.85
2022-08-24T18:49:28.068Z,1.50
2022-08-24T18:51:55.573Z,1.80
2022-08-24T18:54:25.949Z,1.77
2022-08-24T18:56:53.285Z,1.48
2022-08-24T18:59:21.149Z,1.27
2022-08-24T19:02:09.523Z,1.52
2022-08-24T19:07:06.746Z,2.13
2022-08-24T19:09:34.570Z,1.45
2022-08-24T19:12:03.955Z,1.60
2022-08-24T19:14:31.561Z,1.40
2022-08-24T19:16:58.732Z,1.52
2022-08-24T19:19:25.952Z,1.33
2022-08-24T19:21:53.532Z,1.95
2022-08-24T19:24:24.991Z,1.88
2022-08-24T19:26:52.879Z,1.60
2022-08-24T19:29:38.813Z,2.00
2022-08-24T19:32:09.994Z,1.40
2022-08-24T19:34:41.294Z,1.70
2022-08-24T19:39:36.955Z,1.65
2022-08-24T19:42:04.876Z,1.63
2022-08-24T19:44:51.794Z,1.80
2022-08-24T19:47:19.206Z,1.40
2022-08-24T19:49:46.312Z,1.50
2022-08-24T19:52:14.640Z,1.58
2022-08-24T19:54:44.581Z,1.20
2022-08-24T19:57:33.647Z,1.50
2022-08-24T20:00:08.311Z,1.70
2022-08-24T20:02:36.046Z,1.40
2022-08-24T20:05:03.228Z,1.77
2022-08-24T20:07:30.370Z,1.65
2022-08-24T20:09:57.760Z,2.30
2022-08-24T20:14:53.159Z,1.58
2022-08-24T20:17:20.576Z,1.35
2022-08-24T20:19:53.161Z,1.73
2022-08-24T20:22:20.293Z,1.45
2022-08-24T20:24:48.066Z,1.50
2022-08-24T20:27:19.032Z,1.83
2022-08-24T20:29:46.184Z,1.60
2022-08-24T20:32:13.312Z,1.63
2022-08-24T20:34:40.937Z,1.48
2022-08-24T20:37:08.083Z,1.52
2022-08-24T20:39:35.287Z,1.80
2022-08-24T20:42:02.462Z,1.75
2022-08-24T20:44:29.616Z,1.40
2022-08-24T20:46:56.847Z,1.70
2022-08-24T20:49:26.933Z,2.10
2022-08-24T20:51:54.102Z,1.50
2022-08-24T20:54:21.241Z,1.67
2022-08-24T20:56:49.368Z,1.75
2022-08-24T20:59:16.969Z,2.25
2022-08-24T21:01:44.829Z,1.85
2022-08-24T21:04:12.187Z,1.77
2022-08-24T21:06:41.590Z,1.70
2022-08-24T21:09:10.396Z,1.75
2022-08-24T21:11:42.977Z,2.10
2022-08-24T21:14:10.071Z,1.90
2022-08-24T21:16:39.964Z,1.15
2022-08-24T21:19:12.012Z,1.50
2022-08-24T21:21:42.304Z,1.88
2022-08-24T21:24:10.002Z,1.42
2022-08-24T21:26:37.613Z,1.75
2022-08-24T21:29:06.609Z,1.40
2022-08-24T21:34:19.107Z,1.52
2022-08-24T21:36:48.093Z,1.33
2022-08-24T21:39:15.289Z,1.50
2022-08-24T21:41:42.424Z,1.48
2022-08-24T21:44:09.602Z,1.50
2022-08-24T21:46:38.593Z,1.40
2022-08-24T21:51:33.755Z,1.35
2022-08-24T21:54:01.419Z,1.38
2022-08-24T21:56:31.915Z,1.77
2022-08-24T21:58:59.442Z,2.00
2022-08-24T22:01:27.169Z,2.00
2022-08-24T22:03:54.992Z,2.25
2022-08-24T22:06:22.220Z,1.77
2022-08-24T22:08:49.912Z,1.50
2022-08-24T22:11:19.758Z,1.63
2022-08-24T22:13:47.625Z,1.50
2022-08-24T22:16:14.849Z,1.85
2022-08-24T22:18:42.046Z,1.40
2022-08-24T22:21:12.030Z,1.70
2022-08-24T22:23:40.858Z,1.27
2022-08-24T22:26:08.221Z,1.73
2022-08-24T22:28:37.963Z,1.92
2022-08-24T22:31:36.805Z,2.08
2022-08-24T22:34:15.364Z,1.70
2022-08-24T22:36:47.535Z,1.40
2022-08-24T22:39:14.833Z,1.58
2022-08-24T22:41:42.443Z,1.48
2022-08-24T22:44:21.560Z,1.40
2022-08-24T22:46:50.055Z,1.20
2022-08-24T22:49:18.930Z,1.60
2022-08-24T22:51:46.255Z,1.42
2022-08-24T22:54:13.971Z,1.80
2022-08-24T22:56:47.622Z,1.50
2022-08-24T22:59:27.036Z,1.38
2022-08-24T23:01:56.337Z,1.13
2022-08-24T23:04:30.231Z,1.55
2022-08-24T23:06:58.175Z,1.50
2022-08-24T23:09:25.354Z,1.55
2022-08-24T23:11:52.726Z,2.00
2022-08-24T23:14:21.235Z,1.83
2022-08-24T23:16:49.247Z,1.73
2022-08-24T23:19:41.127Z,1.80
2022-08-24T23:22:11.939Z,2.10
2022-08-24T23:24:40.528Z,1.63
2022-08-24T23:27:09.671Z,2.00
2022-08-24T23:29:37.315Z,1.52
2022-08-24T23:32:06.320Z,1.48
2022-08-24T23:37:01.563Z,1.55
2022-08-24T23:39:28.941Z,1.30
2022-08-24T23:41:56.257Z,1.40
2022-08-24T23:44:25.970Z,1.63
2022-08-24T23:46:54.321Z,1.48
2022-08-24T23:49:23.076Z,1.70
2022-08-24T23:51:50.928Z,1.85
2022-08-24T23:54:21.529Z,1.88
2022-08-24T23:56:49.737Z,1.83
2022-08-24T23:59:19.833Z,2.47
